sensor_id;sensor_type;location;lat;lon;timestamp;P1;durP1;ratioP1;P2;durP2;ratioP2
5967;SDS011;3010;51.028;4.170;2022-07-21T00:01:25;7.90;;;7.10;;
5967;SDS011;3010;51.028;4.170;2022-07-21T00:03:52;8.00;;;7.27;;
5967;SDS011;3010;51.028;4.170;2022-07-21T00:06:19;7.70;;;7.10;;
5967;SDS011;3010;51.028;4.170;2022-07-21T00:08:45;7.20;;;6.67;;
5967;SDS011;3010;51.028;4.170;2022-07-21T00:11:12;7.50;;;6.80;;
5967;SDS011;3010;51.028;4.170;2022-07-21T00:13:38;7.15;;;6.65;;
5967;SDS011;3010;51.028;4.170;2022-07-21T00:16:05;7.10;;;6.60;;
5967;SDS011;3010;51.028;4.170;2022-07-21T00:18:32;6.97;;;6.47;;
5967;SDS011;3010;51.028;4.170;2022-07-21T00:20:58;6.83;;;6.23;;
5967;SDS011;3010;51.028;4.170;2022-07-21T00:23:25;7.20;;;6.60;;
5967;SDS011;3010;51.028;4.170;2022-07-21T00:25:52;6.27;;;5.70;;
5967;SDS011;3010;51.028;4.170;2022-07-21T00:28:18;7.03;;;6.33;;
5967;SDS011;3010;51.028;4.170;2022-07-21T00:30:45;7.03;;;6.40;;
5967;SDS011;3010;51.028;4.170;2022-07-21T00:33:11;6.70;;;6.23;;
5967;SDS011;3010;51.028;4.170;2022-07-21T00:35:38;6.87;;;6.17;;
5967;SDS011;3010;51.028;4.170;2022-07-21T00:38:04;6.90;;;6.30;;
5967;SDS011;3010;51.028;4.170;2022-07-21T00:40:31;8.23;;;7.40;;
5967;SDS011;3010;51.028;4.170;2022-07-21T00:42:58;7.80;;;7.00;;
5967;SDS011;3010;51.028;4.170;2022-07-21T00:45:24;7.93;;;7.25;;
5967;SDS011;3010;51.028;4.170;2022-07-21T00:47:51;9.20;;;7.63;;
5967;SDS011;3010;51.028;4.170;2022-07-21T00:50:18;7.87;;;6.53;;
5967;SDS011;3010;51.028;4.170;2022-07-21T00:52:44;9.03;;;7.47;;
5967;SDS011;3010;51.028;4.170;2022-07-21T00:55:12;7.40;;;6.73;;
5967;SDS011;3010;51.028;4.170;2022-07-21T00:57:37;8.50;;;7.70;;
5967;SDS011;3010;51.028;4.170;2022-07-21T01:00:05;7.83;;;6.80;;
5967;SDS011;3010;51.028;4.170;2022-07-21T01:02:33;8.70;;;7.93;;
5967;SDS011;3010;51.028;4.170;2022-07-21T01:04:59;7.20;;;6.60;;
5967;SDS011;3010;51.028;4.170;2022-07-21T01:07:26;8.10;;;6.93;;
5967;SDS011;3010;51.028;4.170;2022-07-21T01:09:53;7.57;;;6.90;;
5967;SDS011;3010;51.028;4.170;2022-07-21T01:12:19;7.73;;;7.03;;
5967;SDS011;3010;51.028;4.170;2022-07-21T01:14:46;7.73;;;6.93;;
5967;SDS011;3010;51.028;4.170;2022-07-21T01:17:12;7.27;;;6.63;;
5967;SDS011;3010;51.028;4.170;2022-07-21T01:19:39;7.80;;;7.10;;
5967;SDS011;3010;51.028;4.170;2022-07-21T01:22:06;7.03;;;6.43;;
5967;SDS011;3010;51.028;4.170;2022-07-21T01:24:32;7.23;;;6.47;;
5967;SDS011;3010;51.028;4.170;2022-07-21T01:26:59;6.87;;;6.40;;
5967;SDS011;3010;51.028;4.170;2022-07-21T01:29:25;8.67;;;7.30;;
5967;SDS011;3010;51.028;4.170;2022-07-21T01:31:52;7.53;;;6.83;;
5967;SDS011;3010;51.028;4.170;2022-07-21T01:34:19;7.37;;;6.57;;
5967;SDS011;3010;51.028;4.170;2022-07-21T01:36:45;7.93;;;7.20;;
5967;SDS011;3010;51.028;4.170;2022-07-21T01:39:12;10.97;;;7.43;;
5967;SDS011;3010;51.028;4.170;2022-07-21T01:41:57;8.57;;;7.63;;
5967;SDS011;3010;51.028;4.170;2022-07-21T01:44:23;7.67;;;6.30;;
5967;SDS011;3010;51.028;4.170;2022-07-21T01:46:50;7.57;;;6.50;;
5967;SDS011;3010;51.028;4.170;2022-07-21T01:49:17;9.07;;;6.90;;
5967;SDS011;3010;51.028;4.170;2022-07-21T01:51:43;9.47;;;7.37;;
5967;SDS011;3010;51.028;4.170;2022-07-21T01:54:10;8.83;;;6.57;;
5967;SDS011;3010;51.028;4.170;2022-07-21T01:56:37;7.40;;;6.70;;
5967;SDS011;3010;51.028;4.170;2022-07-21T01:59:03;7.70;;;6.97;;
5967;SDS011;3010;51.028;4.170;2022-07-21T02:01:30;7.17;;;6.57;;
5967;SDS011;3010;51.028;4.170;2022-07-21T02:03:57;7.83;;;7.10;;
5967;SDS011;3010;51.028;4.170;2022-07-21T02:06:23;8.17;;;7.37;;
5967;SDS011;3010;51.028;4.170;2022-07-21T02:08:49;9.40;;;7.73;;
5967;SDS011;3010;51.028;4.170;2022-07-21T02:11:16;7.73;;;6.97;;
5967;SDS011;3010;51.028;4.170;2022-07-21T02:13:43;9.90;;;7.13;;
5967;SDS011;3010;51.028;4.170;2022-07-21T02:16:09;11.90;;;7.97;;
5967;SDS011;3010;51.028;4.170;2022-07-21T02:18:36;10.03;;;7.40;;
5967;SDS011;3010;51.028;4.170;2022-07-21T02:21:03;11.07;;;8.23;;
5967;SDS011;3010;51.028;4.170;2022-07-21T02:23:29;8.73;;;7.90;;
5967;SDS011;3010;51.028;4.170;2022-07-21T02:25:56;9.70;;;8.57;;
5967;SDS011;3010;51.028;4.170;2022-07-21T02:28:22;9.17;;;8.27;;
5967;SDS011;3010;51.028;4.170;2022-07-21T02:30:49;9.18;;;8.38;;
5967;SDS011;3010;51.028;4.170;2022-07-21T02:33:16;13.60;;;9.20;;
5967;SDS011;3010;51.028;4.170;2022-07-21T02:35:42;10.80;;;7.97;;
5967;SDS011;3010;51.028;4.170;2022-07-21T02:38:08;8.03;;;7.27;;
5967;SDS011;3010;51.028;4.170;2022-07-21T02:40:35;10.17;;;7.90;;
5967;SDS011;3010;51.028;4.170;2022-07-21T02:43:02;12.70;;;9.30;;
5967;SDS011;3010;51.028;4.170;2022-07-21T02:45:28;11.73;;;8.77;;
5967;SDS011;3010;51.028;4.170;2022-07-21T02:47:56;9.93;;;7.63;;
5967;SDS011;3010;51.028;4.170;2022-07-21T02:50:22;9.87;;;8.60;;
5967;SDS011;3010;51.028;4.170;2022-07-21T02:52:48;9.37;;;8.37;;
5967;SDS011;3010;51.028;4.170;2022-07-21T02:55:15;12.63;;;9.23;;
5967;SDS011;3010;51.028;4.170;2022-07-21T02:57:41;11.93;;;8.47;;
5967;SDS011;3010;51.028;4.170;2022-07-21T03:00:08;9.53;;;8.60;;
5967;SDS011;3010;51.028;4.170;2022-07-21T03:02:35;10.63;;;8.20;;
5967;SDS011;3010;51.028;4.170;2022-07-21T03:05:01;9.40;;;8.43;;
5967;SDS011;3010;51.028;4.170;2022-07-21T03:07:28;10.90;;;8.53;;
5967;SDS011;3010;51.028;4.170;2022-07-21T03:09:54;11.57;;;9.43;;
5967;SDS011;3010;51.028;4.170;2022-07-21T03:12:21;10.67;;;9.10;;
5967;SDS011;3010;51.028;4.170;2022-07-21T03:14:47;12.53;;;10.30;;
5967;SDS011;3010;51.028;4.170;2022-07-21T03:17:14;11.47;;;9.37;;
5967;SDS011;3010;51.028;4.170;2022-07-21T03:19:41;14.70;;;9.40;;
5967;SDS011;3010;51.028;4.170;2022-07-21T03:22:07;10.57;;;9.50;;
5967;SDS011;3010;51.028;4.170;2022-07-21T03:24:34;11.37;;;10.17;;
5967;SDS011;3010;51.028;4.170;2022-07-21T03:27:00;14.43;;;10.47;;
5967;SDS011;3010;51.028;4.170;2022-07-21T03:29:27;11.03;;;9.93;;
5967;SDS011;3010;51.028;4.170;2022-07-21T03:31:54;12.67;;;10.23;;
5967;SDS011;3010;51.028;4.170;2022-07-21T03:34:20;17.23;;;10.03;;
5967;SDS011;3010;51.028;4.170;2022-07-21T03:36:47;15.60;;;10.07;;
5967;SDS011;3010;51.028;4.170;2022-07-21T03:39:13;15.97;;;9.90;;
5967;SDS011;3010;51.028;4.170;2022-07-21T03:41:40;13.03;;;10.20;;
5967;SDS011;3010;51.028;4.170;2022-07-21T03:44:07;16.45;;;11.45;;
5967;SDS011;3010;51.028;4.170;2022-07-21T03:46:33;12.23;;;10.87;;
5967;SDS011;3010;51.028;4.170;2022-07-21T03:49:00;14.77;;;10.50;;
5967;SDS011;3010;51.028;4.170;2022-07-21T03:51:26;11.37;;;10.13;;
5967;SDS011;3010;51.028;4.170;2022-07-21T03:53:53;12.40;;;10.57;;
5967;SDS011;3010;51.028;4.170;2022-07-21T03:56:20;14.87;;;10.60;;
5967;SDS011;3010;51.028;4.170;2022-07-21T03:58:46;12.57;;;10.50;;
5967;SDS011;3010;51.028;4.170;2022-07-21T04:01:13;15.27;;;10.97;;
5967;SDS011;3010;51.028;4.170;2022-07-21T04:03:39;12.97;;;11.10;;
5967;SDS011;3010;51.028;4.170;2022-07-21T04:06:06;13.57;;;11.40;;
5967;SDS011;3010;51.028;4.170;2022-07-21T04:08:33;14.07;;;11.93;;
5967;SDS011;3010;51.028;4.170;2022-07-21T04:10:59;18.37;;;11.97;;
5967;SDS011;3010;51.028;4.170;2022-07-21T04:13:26;16.53;;;12.23;;
5967;SDS011;3010;51.028;4.170;2022-07-21T04:15:52;17.37;;;12.23;;
5967;SDS011;3010;51.028;4.170;2022-07-21T04:18:19;13.83;;;11.57;;
5967;SDS011;3010;51.028;4.170;2022-07-21T04:20:46;19.62;;;13.73;;
5967;SDS011;3010;51.028;4.170;2022-07-21T04:23:12;14.67;;;12.67;;
5967;SDS011;3010;51.028;4.170;2022-07-21T04:25:39;17.60;;;12.43;;
5967;SDS011;3010;51.028;4.170;2022-07-21T04:28:05;18.23;;;12.73;;
5967;SDS011;3010;51.028;4.170;2022-07-21T04:30:32;16.90;;;13.47;;
5967;SDS011;3010;51.028;4.170;2022-07-21T04:32:59;16.40;;;13.27;;
5967;SDS011;3010;51.028;4.170;2022-07-21T04:35:25;22.23;;;13.93;;
5967;SDS011;3010;51.028;4.170;2022-07-21T04:37:52;21.23;;;14.27;;
5967;SDS011;3010;51.028;4.170;2022-07-21T04:40:18;22.98;;;17.30;;
5967;SDS011;3010;51.028;4.170;2022-07-21T04:42:45;22.93;;;15.80;;
5967;SDS011;3010;51.028;4.170;2022-07-21T04:45:12;21.80;;;16.20;;
5967;SDS011;3010;51.028;4.170;2022-07-21T04:47:50;24.33;;;17.20;;
5967;SDS011;3010;51.028;4.170;2022-07-21T04:50:14;24.53;;;16.63;;
5967;SDS011;3010;51.028;4.170;2022-07-21T04:52:40;23.63;;;17.50;;
5967;SDS011;3010;51.028;4.170;2022-07-21T04:55:07;30.30;;;18.47;;
5967;SDS011;3010;51.028;4.170;2022-07-21T04:57:37;30.67;;;20.53;;
5967;SDS011;3010;51.028;4.170;2022-07-21T05:00:03;27.27;;;20.40;;
5967;SDS011;3010;51.028;4.170;2022-07-21T05:02:30;27.00;;;20.43;;
5967;SDS011;3010;51.028;4.170;2022-07-21T05:04:56;25.33;;;21.03;;
5967;SDS011;3010;51.028;4.170;2022-07-21T05:07:23;32.13;;;22.77;;
5967;SDS011;3010;51.028;4.170;2022-07-21T05:09:50;42.30;;;28.50;;
5967;SDS011;3010;51.028;4.170;2022-07-21T05:12:16;37.60;;;24.27;;
5967;SDS011;3010;51.028;4.170;2022-07-21T05:14:43;40.83;;;25.07;;
5967;SDS011;3010;51.028;4.170;2022-07-21T05:17:09;33.47;;;23.90;;
5967;SDS011;3010;51.028;4.170;2022-07-21T05:19:36;38.70;;;24.77;;
5967;SDS011;3010;51.028;4.170;2022-07-21T05:22:03;36.70;;;25.00;;
5967;SDS011;3010;51.028;4.170;2022-07-21T05:24:29;40.30;;;25.03;;
5967;SDS011;3010;51.028;4.170;2022-07-21T05:26:56;38.87;;;24.73;;
5967;SDS011;3010;51.028;4.170;2022-07-21T05:29:22;36.63;;;24.50;;
5967;SDS011;3010;51.028;4.170;2022-07-21T05:31:49;41.13;;;25.67;;
5967;SDS011;3010;51.028;4.170;2022-07-21T05:34:16;39.73;;;26.10;;
5967;SDS011;3010;51.028;4.170;2022-07-21T05:36:42;36.90;;;25.27;;
5967;SDS011;3010;51.028;4.170;2022-07-21T05:39:09;51.30;;;33.20;;
5967;SDS011;3010;51.028;4.170;2022-07-21T05:41:35;57.20;;;33.88;;
5967;SDS011;3010;51.028;4.170;2022-07-21T05:44:02;52.67;;;30.50;;
5967;SDS011;3010;51.028;4.170;2022-07-21T05:46:29;46.60;;;28.43;;
5967;SDS011;3010;51.028;4.170;2022-07-21T05:48:55;47.80;;;29.07;;
5967;SDS011;3010;51.028;4.170;2022-07-21T05:51:22;47.33;;;28.43;;
5967;SDS011;3010;51.028;4.170;2022-07-21T05:53:48;56.13;;;35.70;;
5967;SDS011;3010;51.028;4.170;2022-07-21T05:56:15;61.33;;;33.57;;
5967;SDS011;3010;51.028;4.170;2022-07-21T05:58:42;61.83;;;31.63;;
5967;SDS011;3010;51.028;4.170;2022-07-21T06:01:08;79.83;;;39.17;;
5967;SDS011;3010;51.028;4.170;2022-07-21T06:03:35;58.33;;;32.43;;
5967;SDS011;3010;51.028;4.170;2022-07-21T06:06:01;78.50;;;32.90;;
5967;SDS011;3010;51.028;4.170;2022-07-21T06:08:28;65.73;;;33.93;;
5967;SDS011;3010;51.028;4.170;2022-07-21T06:10:55;64.03;;;31.90;;
5967;SDS011;3010;51.028;4.170;2022-07-21T06:13:21;122.27;;;46.43;;
5967;SDS011;3010;51.028;4.170;2022-07-21T06:15:48;106.23;;;40.00;;
5967;SDS011;3010;51.028;4.170;2022-07-21T06:18:14;89.33;;;37.83;;
5967;SDS011;3010;51.028;4.170;2022-07-21T06:20:41;90.60;;;38.17;;
5967;SDS011;3010;51.028;4.170;2022-07-21T06:23:08;78.20;;;36.83;;
5967;SDS011;3010;51.028;4.170;2022-07-21T06:25:34;136.83;;;50.67;;
5967;SDS011;3010;51.028;4.170;2022-07-21T06:28:01;92.83;;;41.60;;
5967;SDS011;3010;51.028;4.170;2022-07-21T06:30:27;95.43;;;42.10;;
5967;SDS011;3010;51.028;4.170;2022-07-21T06:32:54;100.17;;;42.47;;
5967;SDS011;3010;51.028;4.170;2022-07-21T06:35:21;119.17;;;45.33;;
5967;SDS011;3010;51.028;4.170;2022-07-21T06:37:47;114.77;;;45.10;;
5967;SDS011;3010;51.028;4.170;2022-07-21T06:40:14;118.03;;;46.23;;
5967;SDS011;3010;51.028;4.170;2022-07-21T06:42:40;118.27;;;47.93;;
5967;SDS011;3010;51.028;4.170;2022-07-21T06:45:07;135.80;;;50.13;;
5967;SDS011;3010;51.028;4.170;2022-07-21T06:47:34;144.00;;;50.50;;
5967;SDS011;3010;51.028;4.170;2022-07-21T06:50:00;137.10;;;50.67;;
5967;SDS011;3010;51.028;4.170;2022-07-21T06:52:30;160.37;;;52.67;;
5967;SDS011;3010;51.028;4.170;2022-07-21T06:54:56;148.10;;;54.73;;
5967;SDS011;3010;51.028;4.170;2022-07-21T06:57:23;154.50;;;54.93;;
5967;SDS011;3010;51.028;4.170;2022-07-21T06:59:50;163.00;;;56.03;;
5967;SDS011;3010;51.028;4.170;2022-07-21T07:02:16;154.00;;;54.70;;
5967;SDS011;3010;51.028;4.170;2022-07-21T07:04:43;143.77;;;53.57;;
5967;SDS011;3010;51.028;4.170;2022-07-21T07:07:10;149.83;;;53.20;;
5967;SDS011;3010;51.028;4.170;2022-07-21T07:09:36;150.50;;;53.37;;
5967;SDS011;3010;51.028;4.170;2022-07-21T07:12:03;165.10;;;55.60;;
5967;SDS011;3010;51.028;4.170;2022-07-21T07:14:29;138.57;;;53.83;;
5967;SDS011;3010;51.028;4.170;2022-07-21T07:16:56;155.47;;;56.27;;
5967;SDS011;3010;51.028;4.170;2022-07-21T07:19:22;138.70;;;53.17;;
5967;SDS011;3010;51.028;4.170;2022-07-21T07:21:49;126.83;;;52.00;;
5967;SDS011;3010;51.028;4.170;2022-07-21T07:24:15;120.70;;;50.87;;
5967;SDS011;3010;51.028;4.170;2022-07-21T07:26:42;110.63;;;49.07;;
5967;SDS011;3010;51.028;4.170;2022-07-21T07:29:09;109.40;;;46.13;;
5967;SDS011;3010;51.028;4.170;2022-07-21T07:31:35;116.87;;;48.00;;
5967;SDS011;3010;51.028;4.170;2022-07-21T07:34:02;104.00;;;47.43;;
5967;SDS011;3010;51.028;4.170;2022-07-21T07:36:29;102.70;;;48.47;;
5967;SDS011;3010;51.028;4.170;2022-07-21T07:38:55;101.30;;;47.60;;
5967;SDS011;3010;51.028;4.170;2022-07-21T07:41:23;90.77;;;45.10;;
5967;SDS011;3010;51.028;4.170;2022-07-21T07:43:48;81.77;;;42.87;;
5967;SDS011;3010;51.028;4.170;2022-07-21T07:46:15;86.77;;;44.77;;
5967;SDS011;3010;51.028;4.170;2022-07-21T07:48:41;86.03;;;43.93;;
5967;SDS011;3010;51.028;4.170;2022-07-21T07:51:09;71.97;;;39.67;;
5967;SDS011;3010;51.028;4.170;2022-07-21T07:53:35;75.20;;;39.40;;
5967;SDS011;3010;51.028;4.170;2022-07-21T07:56:01;68.37;;;37.23;;
5967;SDS011;3010;51.028;4.170;2022-07-21T07:58:28;69.67;;;38.97;;
5967;SDS011;3010;51.028;4.170;2022-07-21T08:00:54;67.60;;;38.37;;
5967;SDS011;3010;51.028;4.170;2022-07-21T08:03:21;59.83;;;38.47;;
5967;SDS011;3010;51.028;4.170;2022-07-21T08:05:49;64.80;;;37.60;;
5967;SDS011;3010;51.028;4.170;2022-07-21T08:08:16;60.77;;;37.50;;
5967;SDS011;3010;51.028;4.170;2022-07-21T08:10:43;83.33;;;45.23;;
5967;SDS011;3010;51.028;4.170;2022-07-21T08:13:09;83.60;;;39.40;;
5967;SDS011;3010;51.028;4.170;2022-07-21T08:15:35;65.47;;;38.63;;
5967;SDS011;3010;51.028;4.170;2022-07-21T08:18:02;67.37;;;37.00;;
5967;SDS011;3010;51.028;4.170;2022-07-21T08:20:29;77.17;;;37.73;;
5967;SDS011;3010;51.028;4.170;2022-07-21T08:22:55;67.10;;;34.93;;
5967;SDS011;3010;51.028;4.170;2022-07-21T08:25:22;56.33;;;31.80;;
5967;SDS011;3010;51.028;4.170;2022-07-21T08:27:48;58.43;;;32.83;;
5967;SDS011;3010;51.028;4.170;2022-07-21T08:30:15;46.90;;;30.60;;
5967;SDS011;3010;51.028;4.170;2022-07-21T08:32:42;50.53;;;30.60;;
5967;SDS011;3010;51.028;4.170;2022-07-21T08:35:08;63.57;;;38.30;;
5967;SDS011;3010;51.028;4.170;2022-07-21T08:37:35;54.20;;;32.53;;
5967;SDS011;3010;51.028;4.170;2022-07-21T08:40:05;56.73;;;32.87;;
5967;SDS011;3010;51.028;4.170;2022-07-21T08:42:28;54.90;;;32.37;;
5967;SDS011;3010;51.028;4.170;2022-07-21T08:44:55;53.53;;;30.00;;
5967;SDS011;3010;51.028;4.170;2022-07-21T08:47:21;52.63;;;30.23;;
5967;SDS011;3010;51.028;4.170;2022-07-21T08:49:48;49.60;;;28.27;;
5967;SDS011;3010;51.028;4.170;2022-07-21T08:52:14;59.23;;;33.67;;
5967;SDS011;3010;51.028;4.170;2022-07-21T08:54:41;43.30;;;26.77;;
5967;SDS011;3010;51.028;4.170;2022-07-21T08:57:07;46.87;;;28.07;;
5967;SDS011;3010;51.028;4.170;2022-07-21T08:59:34;42.57;;;26.27;;
5967;SDS011;3010;51.028;4.170;2022-07-21T09:02:01;35.23;;;22.87;;
5967;SDS011;3010;51.028;4.170;2022-07-21T09:04:28;40.67;;;23.60;;
5967;SDS011;3010;51.028;4.170;2022-07-21T09:06:55;38.80;;;22.17;;
5967;SDS011;3010;51.028;4.170;2022-07-21T09:09:24;41.33;;;26.42;;
5967;SDS011;3010;51.028;4.170;2022-07-21T09:11:50;26.17;;;21.07;;
5967;SDS011;3010;51.028;4.170;2022-07-21T09:14:17;30.67;;;20.83;;
5967;SDS011;3010;51.028;4.170;2022-07-21T09:16:44;33.43;;;22.07;;
5967;SDS011;3010;51.028;4.170;2022-07-21T09:19:20;31.40;;;20.03;;
5967;SDS011;3010;51.028;4.170;2022-07-21T09:21:58;28.37;;;18.63;;
5967;SDS011;3010;51.028;4.170;2022-07-21T09:24:25;28.90;;;19.50;;
5967;SDS011;3010;51.028;4.170;2022-07-21T09:27:17;26.20;;;18.73;;
5967;SDS011;3010;51.028;4.170;2022-07-21T09:29:51;27.43;;;19.10;;
5967;SDS011;3010;51.028;4.170;2022-07-21T09:32:23;31.10;;;19.60;;
5967;SDS011;3010;51.028;4.170;2022-07-21T09:34:58;38.00;;;22.30;;
5967;SDS011;3010;51.028;4.170;2022-07-21T09:37:18;31.40;;;21.63;;
5967;SDS011;3010;51.028;4.170;2022-07-21T09:39:54;34.80;;;21.77;;
5967;SDS011;3010;51.028;4.170;2022-07-21T09:42:24;37.50;;;21.87;;
5967;SDS011;3010;51.028;4.170;2022-07-21T09:44:51;37.23;;;23.23;;
5967;SDS011;3010;51.028;4.170;2022-07-21T09:47:17;32.43;;;23.30;;
5967;SDS011;3010;51.028;4.170;2022-07-21T09:49:43;30.90;;;20.93;;
5967;SDS011;3010;51.028;4.170;2022-07-21T09:54:49;37.13;;;21.43;;
5967;SDS011;3010;51.028;4.170;2022-07-21T09:57:16;30.87;;;20.03;;
5967;SDS011;3010;51.028;4.170;2022-07-21T09:59:43;27.97;;;19.33;;
5967;SDS011;3010;51.028;4.170;2022-07-21T10:02:10;29.53;;;19.50;;
5967;SDS011;3010;51.028;4.170;2022-07-21T10:04:35;29.80;;;19.53;;
5967;SDS011;3010;51.028;4.170;2022-07-21T10:07:02;26.10;;;17.67;;
5967;SDS011;3010;51.028;4.170;2022-07-21T10:09:28;24.27;;;17.47;;
5967;SDS011;3010;51.028;4.170;2022-07-21T10:11:55;22.37;;;16.47;;
5967;SDS011;3010;51.028;4.170;2022-07-21T10:14:21;23.73;;;18.07;;
5967;SDS011;3010;51.028;4.170;2022-07-21T10:16:48;21.07;;;16.60;;
5967;SDS011;3010;51.028;4.170;2022-07-21T10:19:19;23.20;;;16.87;;
5967;SDS011;3010;51.028;4.170;2022-07-21T10:24:27;24.37;;;16.37;;
5967;SDS011;3010;51.028;4.170;2022-07-21T10:27:02;19.83;;;13.93;;
5967;SDS011;3010;51.028;4.170;2022-07-21T10:32:26;18.17;;;13.03;;
5967;SDS011;3010;51.028;4.170;2022-07-21T10:34:51;16.53;;;12.33;;
5967;SDS011;3010;51.028;4.170;2022-07-21T10:40:06;20.47;;;12.23;;
5967;SDS011;3010;51.028;4.170;2022-07-21T10:42:33;16.97;;;12.83;;
5967;SDS011;3010;51.028;4.170;2022-07-21T10:44:59;15.27;;;11.70;;
5967;SDS011;3010;51.028;4.170;2022-07-21T10:47:27;16.30;;;11.93;;
5967;SDS011;3010;51.028;4.170;2022-07-21T10:55:23;11.47;;;10.17;;
5967;SDS011;3010;51.028;4.170;2022-07-21T10:57:39;15.33;;;10.20;;
5967;SDS011;3010;51.028;4.170;2022-07-21T11:00:27;10.53;;;9.33;;
5967;SDS011;3010;51.028;4.170;2022-07-21T11:02:56;14.17;;;10.03;;
5967;SDS011;3010;51.028;4.170;2022-07-21T11:05:25;13.87;;;10.00;;
5967;SDS011;3010;51.028;4.170;2022-07-21T11:08:10;18.00;;;10.90;;
5967;SDS011;3010;51.028;4.170;2022-07-21T11:10:37;16.73;;;12.95;;
5967;SDS011;3010;51.028;4.170;2022-07-21T11:13:12;15.30;;;11.47;;
5967;SDS011;3010;51.028;4.170;2022-07-21T11:18:24;13.27;;;10.87;;
5967;SDS011;3010;51.028;4.170;2022-07-21T11:21:09;13.37;;;10.07;;
5967;SDS011;3010;51.028;4.170;2022-07-21T11:23:43;15.13;;;9.80;;
5967;SDS011;3010;51.028;4.170;2022-07-21T11:26:16;15.87;;;10.03;;
5967;SDS011;3010;51.028;4.170;2022-07-21T11:28:39;16.37;;;12.13;;
5967;SDS011;3010;51.028;4.170;2022-07-21T11:31:07;21.70;;;10.97;;
5967;SDS011;3010;51.028;4.170;2022-07-21T11:33:34;14.00;;;11.00;;
5967;SDS011;3010;51.028;4.170;2022-07-21T11:35:59;18.03;;;10.93;;
5967;SDS011;3010;51.028;4.170;2022-07-21T11:38:26;19.13;;;11.23;;
5967;SDS011;3010;51.028;4.170;2022-07-21T11:40:52;17.40;;;10.97;;
5967;SDS011;3010;51.028;4.170;2022-07-21T11:43:19;19.73;;;12.10;;
5967;SDS011;3010;51.028;4.170;2022-07-21T11:45:52;18.48;;;12.65;;
5967;SDS011;3010;51.028;4.170;2022-07-21T11:48:31;20.43;;;11.80;;
5967;SDS011;3010;51.028;4.170;2022-07-21T11:51:04;18.77;;;11.50;;
5967;SDS011;3010;51.028;4.170;2022-07-21T11:53:31;15.53;;;9.80;;
5967;SDS011;3010;51.028;4.170;2022-07-21T11:55:58;17.67;;;11.17;;
5967;SDS011;3010;51.028;4.170;2022-07-21T11:58:25;15.63;;;10.43;;
5967;SDS011;3010;51.028;4.170;2022-07-21T12:01:07;15.53;;;10.37;;
5967;SDS011;3010;51.028;4.170;2022-07-21T12:03:34;16.50;;;11.07;;
5967;SDS011;3010;51.028;4.170;2022-07-21T12:06:00;19.20;;;12.57;;
5967;SDS011;3010;51.028;4.170;2022-07-21T12:08:27;15.83;;;11.43;;
5967;SDS011;3010;51.028;4.170;2022-07-21T12:11:03;19.87;;;11.57;;
5967;SDS011;3010;51.028;4.170;2022-07-21T12:13:29;17.57;;;10.23;;
5967;SDS011;3010;51.028;4.170;2022-07-21T12:15:55;19.70;;;10.50;;
5967;SDS011;3010;51.028;4.170;2022-07-21T12:18:22;12.47;;;8.63;;
5967;SDS011;3010;51.028;4.170;2022-07-21T12:21:01;13.73;;;8.83;;
5967;SDS011;3010;51.028;4.170;2022-07-21T12:23:29;13.43;;;9.47;;
5967;SDS011;3010;51.028;4.170;2022-07-21T12:25:55;14.57;;;9.77;;
5967;SDS011;3010;51.028;4.170;2022-07-21T12:28:40;15.00;;;10.40;;
5967;SDS011;3010;51.028;4.170;2022-07-21T12:30:49;16.17;;;12.17;;
5967;SDS011;3010;51.028;4.170;2022-07-21T12:33:20;21.93;;;11.53;;
5967;SDS011;3010;51.028;4.170;2022-07-21T12:35:56;18.77;;;9.80;;
5967;SDS011;3010;51.028;4.170;2022-07-21T12:38:15;12.00;;;8.27;;
5967;SDS011;3010;51.028;4.170;2022-07-21T12:40:42;13.75;;;8.05;;
5967;SDS011;3010;51.028;4.170;2022-07-21T12:43:09;10.07;;;7.33;;
5967;SDS011;3010;51.028;4.170;2022-07-21T12:48:10;11.27;;;7.00;;
5967;SDS011;3010;51.028;4.170;2022-07-21T12:50:36;13.77;;;6.93;;
5967;SDS011;3010;51.028;4.170;2022-07-21T12:53:03;11.00;;;6.37;;
5967;SDS011;3010;51.028;4.170;2022-07-21T12:55:29;12.83;;;7.30;;
5967;SDS011;3010;51.028;4.170;2022-07-21T12:57:56;12.10;;;8.50;;
5967;SDS011;3010;51.028;4.170;2022-07-21T13:00:22;10.90;;;8.43;;
5967;SDS011;3010;51.028;4.170;2022-07-21T13:02:50;17.13;;;8.90;;
5967;SDS011;3010;51.028;4.170;2022-07-21T13:05:16;16.50;;;9.00;;
5967;SDS011;3010;51.028;4.170;2022-07-21T13:07:42;14.63;;;9.03;;
5967;SDS011;3010;51.028;4.170;2022-07-21T13:10:09;13.83;;;10.10;;
5967;SDS011;3010;51.028;4.170;2022-07-21T13:12:35;21.13;;;11.00;;
5967;SDS011;3010;51.028;4.170;2022-07-21T13:15:02;18.23;;;12.43;;
5967;SDS011;3010;51.028;4.170;2022-07-21T13:17:29;18.03;;;12.33;;
5967;SDS011;3010;51.028;4.170;2022-07-21T13:19:55;16.43;;;11.50;;
5967;SDS011;3010;51.028;4.170;2022-07-21T13:22:22;23.07;;;11.37;;
5967;SDS011;3010;51.028;4.170;2022-07-21T13:24:48;17.60;;;9.80;;
5967;SDS011;3010;51.028;4.170;2022-07-21T13:27:15;16.80;;;10.60;;
5967;SDS011;3010;51.028;4.170;2022-07-21T13:29:42;23.27;;;10.53;;
5967;SDS011;3010;51.028;4.170;2022-07-21T13:32:08;15.63;;;10.03;;
5967;SDS011;3010;51.028;4.170;2022-07-21T13:34:35;15.67;;;10.27;;
5967;SDS011;3010;51.028;4.170;2022-07-21T13:37:01;14.57;;;10.87;;
5967;SDS011;3010;51.028;4.170;2022-07-21T13:39:28;14.83;;;9.40;;
5967;SDS011;3010;51.028;4.170;2022-07-21T13:41:55;22.27;;;12.60;;
5967;SDS011;3010;51.028;4.170;2022-07-21T13:44:22;20.80;;;13.87;;
5967;SDS011;3010;51.028;4.170;2022-07-21T13:46:48;18.95;;;12.88;;
5967;SDS011;3010;51.028;4.170;2022-07-21T13:49:14;16.07;;;10.77;;
5967;SDS011;3010;51.028;4.170;2022-07-21T13:51:41;18.30;;;9.53;;
5967;SDS011;3010;51.028;4.170;2022-07-21T13:54:07;16.97;;;9.90;;
5967;SDS011;3010;51.028;4.170;2022-07-21T13:56:34;14.60;;;8.80;;
5967;SDS011;3010;51.028;4.170;2022-07-21T13:59:01;17.83;;;10.93;;
5967;SDS011;3010;51.028;4.170;2022-07-21T14:01:27;14.77;;;11.27;;
5967;SDS011;3010;51.028;4.170;2022-07-21T14:03:54;15.27;;;12.47;;
5967;SDS011;3010;51.028;4.170;2022-07-21T14:06:21;15.93;;;11.40;;
5967;SDS011;3010;51.028;4.170;2022-07-21T14:08:47;16.33;;;11.20;;
5967;SDS011;3010;51.028;4.170;2022-07-21T14:11:14;13.63;;;9.83;;
5967;SDS011;3010;51.028;4.170;2022-07-21T14:13:40;14.60;;;9.23;;
5967;SDS011;3010;51.028;4.170;2022-07-21T14:16:07;13.57;;;8.37;;
5967;SDS011;3010;51.028;4.170;2022-07-21T14:18:34;17.47;;;8.50;;
5967;SDS011;3010;51.028;4.170;2022-07-21T14:21:00;13.10;;;7.50;;
5967;SDS011;3010;51.028;4.170;2022-07-21T14:23:27;16.33;;;8.13;;
5967;SDS011;3010;51.028;4.170;2022-07-21T14:25:53;15.53;;;8.73;;
5967;SDS011;3010;51.028;4.170;2022-07-21T14:28:20;18.73;;;9.00;;
5967;SDS011;3010;51.028;4.170;2022-07-21T14:30:47;17.00;;;8.87;;
5967;SDS011;3010;51.028;4.170;2022-07-21T14:33:13;11.40;;;5.97;;
5967;SDS011;3010;51.028;4.170;2022-07-21T14:35:40;10.27;;;5.67;;
5967;SDS011;3010;51.028;4.170;2022-07-21T14:38:06;13.07;;;6.62;;
5967;SDS011;3010;51.028;4.170;2022-07-21T14:40:33;10.57;;;6.40;;
5967;SDS011;3010;51.028;4.170;2022-07-21T14:42:59;16.07;;;6.27;;
5967;SDS011;3010;51.028;4.170;2022-07-21T14:45:26;6.87;;;5.13;;
5967;SDS011;3010;51.028;4.170;2022-07-21T14:47:53;10.87;;;5.97;;
5967;SDS011;3010;51.028;4.170;2022-07-21T14:50:20;10.63;;;5.57;;
5967;SDS011;3010;51.028;4.170;2022-07-21T14:52:46;12.97;;;5.13;;
5967;SDS011;3010;51.028;4.170;2022-07-21T14:55:12;9.20;;;4.90;;
5967;SDS011;3010;51.028;4.170;2022-07-21T14:57:39;11.90;;;4.60;;
5967;SDS011;3010;51.028;4.170;2022-07-21T15:00:06;11.60;;;5.67;;
5967;SDS011;3010;51.028;4.170;2022-07-21T15:02:32;8.33;;;5.37;;
5967;SDS011;3010;51.028;4.170;2022-07-21T15:04:59;10.53;;;5.47;;
5967;SDS011;3010;51.028;4.170;2022-07-21T15:07:25;14.93;;;5.87;;
5967;SDS011;3010;51.028;4.170;2022-07-21T15:09:52;19.53;;;6.23;;
5967;SDS011;3010;51.028;4.170;2022-07-21T15:12:19;14.57;;;5.77;;
5967;SDS011;3010;51.028;4.170;2022-07-21T15:14:46;13.50;;;6.17;;
5967;SDS011;3010;51.028;4.170;2022-07-21T15:17:13;16.53;;;6.77;;